Time;durP1;ratioP1;P1;durP2;ratioP2;P2;SDS_P1;SDS_P2;PMS_P1;PMS_P2;Temp;Humidity;BMP_temperature;BMP_pressure;BME280_temperature;BME280_humidity;BME280_pressure;Samples;Min_cycle;Max_cycle;Signal;HPM_P1;HPM_P2
2022/01/29 00:01:24;;;;;;;8.27;3.53;;;;;;;;;;5126411;27;20020;-78
2022/01/29 00:03:52;;;;;;;7.97;3.10;;;;;;;;;;5124504;27;20994;-78
2022/01/29 00:06:18;;;;;;;8.77;3.20;;;;;;;;;;5134074;27;20027;-79
2022/01/29 00:08:46;;;;;;;6.33;3.43;;;;;;;;;;5126984;27;20031;-79
2022/01/29 00:11:16;;;;;;;5.47;3.00;;;;;;;;;;5137735;27;20047;-79
2022/01/29 00:13:42;;;;;;;8.07;2.63;;;;;;;;;;5114832;27;20118;-80
2022/01/29 00:16:10;;;;;;;4.23;2.80;;;;;;;;;;5124383;27;20527;-79
2022/01/29 00:18:36;;;;;;;3.63;2.47;;;;;;;;;;5117106;27;20038;-79
2022/01/29 00:21:03;;;;;;;6.40;3.00;;;;;;;;;;5125230;27;20333;-78
2022/01/29 00:23:29;;;;;;;7.00;3.47;;;;;;;;;;5114665;27;20115;-79
2022/01/29 00:25:59;;;;;;;3.87;2.67;;;;;;;;;;5124918;27;20028;-79
2022/01/29 00:28:26;;;;;;;8.77;3.93;;;;;;;;;;5130969;27;20062;-77
2022/01/29 00:30:52;;;;;;;4.47;3.40;;;;;;;;;;5116890;27;20019;-79
2022/01/29 00:33:18;;;;;;;6.33;3.93;;;;;;;;;;5134976;27;20034;-80
2022/01/29 00:35:44;;;;;;;6.30;3.50;;;;;;;;;;5115933;27;20451;-78
2022/01/29 00:38:14;;;;;;;11.93;5.03;;;;;;;;;;5116742;27;20059;-78
2022/01/29 00:40:45;;;;;;;6.70;3.60;;;;;;;;;;5115046;27;20031;-78
2022/01/29 00:43:13;;;;;;;10.13;5.23;;;;;;;;;;5128436;27;20042;-79
2022/01/29 00:45:40;;;;;;;8.33;4.87;;;;;;;;;;5119926;27;20027;-79
2022/01/29 00:48:06;;;;;;;9.80;5.30;;;;;;;;;;5115733;27;20055;-80
2022/01/29 00:50:34;;;;;;;14.43;5.73;;;;;;;;;;5115037;27;20043;-79
2022/01/29 00:53:00;;;;;;;10.67;5.57;;;;;;;;;;5130584;27;20039;-79
2022/01/29 00:55:26;;;;;;;8.63;5.13;;;;;;;;;;5114605;27;20075;-79
2022/01/29 00:57:52;;;;;;;13.27;5.83;;;;;;;;;;5118448;27;20031;-79
2022/01/29 01:00:21;;;;;;;10.17;4.70;;;;;;;;;;5117256;27;20039;-78
2022/01/29 01:02:49;;;;;;;8.40;5.50;;;;;;;;;;5117354;27;20036;-79
2022/01/29 01:05:15;;;;;;;10.27;5.23;;;;;;;;;;5117408;27;20039;-77
2022/01/29 01:07:43;;;;;;;14.67;4.80;;;;;;;;;;5120380;27;20035;-78
2022/01/29 01:10:11;;;;;;;20.00;7.10;;;;;;;;;;5117284;27;20034;-78
2022/01/29 01:12:38;;;;;;;13.37;6.43;;;;;;;;;;5113201;27;20064;-79
2022/01/29 01:15:05;;;;;;;11.77;6.83;;;;;;;;;;5116655;27;20039;-78
2022/01/29 01:17:31;;;;;;;13.37;6.40;;;;;;;;;;5112713;27;20032;-78
2022/01/29 01:19:57;;;;;;;8.77;5.47;;;;;;;;;;5126202;27;20031;-76
2022/01/29 01:22:25;;;;;;;17.07;6.90;;;;;;;;;;5126085;27;20051;-80
2022/01/29 01:24:51;;;;;;;12.80;5.83;;;;;;;;;;5125340;27;20036;-78
2022/01/29 01:27:20;;;;;;;11.27;5.47;;;;;;;;;;5119681;27;20340;-79
2022/01/29 01:29:46;;;;;;;11.87;6.10;;;;;;;;;;5113679;27;20435;-78
2022/01/29 01:32:12;;;;;;;14.53;6.23;;;;;;;;;;5114350;27;20046;-79
2022/01/29 01:34:43;;;;;;;15.63;6.50;;;;;;;;;;5113387;27;20035;-79
2022/01/29 01:37:15;;;;;;;10.30;5.73;;;;;;;;;;5129489;27;20027;-79
2022/01/29 01:39:42;;;;;;;10.00;6.03;;;;;;;;;;5114132;27;20031;-80
2022/01/29 01:42:08;;;;;;;10.43;5.73;;;;;;;;;;5116449;27;20019;-79
2022/01/29 01:44:35;;;;;;;12.10;5.90;;;;;;;;;;5116987;27;20023;-79
2022/01/29 01:47:01;;;;;;;15.27;5.77;;;;;;;;;;5117178;27;20081;-79
2022/01/29 01:49:30;;;;;;;14.87;5.87;;;;;;;;;;5123783;27;20062;-79
2022/01/29 01:51:55;;;;;;;15.27;5.60;;;;;;;;;;5117149;27;20024;-78
2022/01/29 01:54:22;;;;;;;14.37;6.17;;;;;;;;;;5117077;27;21815;-80
2022/01/29 01:56:49;;;;;;;11.43;5.70;;;;;;;;;;5117875;27;20121;-80
2022/01/29 01:59:15;;;;;;;12.90;6.77;;;;;;;;;;5114076;27;20179;-79
2022/01/29 02:01:41;;;;;;;15.57;6.47;;;;;;;;;;5114945;27;20052;-78
2022/01/29 02:04:07;;;;;;;13.83;5.53;;;;;;;;;;5115579;27;20045;-79
2022/01/29 02:06:33;;;;;;;11.27;6.07;;;;;;;;;;5130094;27;20027;-79
2022/01/29 02:09:01;;;;;;;13.67;5.87;;;;;;;;;;5114275;27;20020;-77
2022/01/29 02:11:31;;;;;;;16.10;6.60;;;;;;;;;;5114045;27;20102;-79
2022/01/29 02:13:59;;;;;;;9.83;5.17;;;;;;;;;;5114400;27;20023;-79
2022/01/29 02:16:28;;;;;;;13.53;7.57;;;;;;;;;;5114431;27;20027;-80
2022/01/29 02:18:54;;;;;;;12.97;6.57;;;;;;;;;;5116795;27;20097;-79
2022/01/29 02:21:21;;;;;;;13.57;7.07;;;;;;;;;;5111532;28;20402;-80
2022/01/29 02:23:49;;;;;;;13.47;6.73;;;;;;;;;;5110037;27;20028;-78
2022/01/29 02:26:15;;;;;;;12.37;5.57;;;;;;;;;;5117244;28;20505;-79
2022/01/29 02:28:41;;;;;;;9.73;5.33;;;;;;;;;;5113083;28;20028;-79
2022/01/29 02:31:11;;;;;;;11.87;6.43;;;;;;;;;;5134098;27;20103;-78
2022/01/29 02:33:40;;;;;;;12.97;6.23;;;;;;;;;;5119021;28;20039;-78
2022/01/29 02:36:06;;;;;;;17.73;6.50;;;;;;;;;;5111749;28;20027;-79
2022/01/29 02:38:32;;;;;;;13.47;5.70;;;;;;;;;;5113765;28;20039;-79
2022/01/29 02:41:02;;;;;;;12.13;5.67;;;;;;;;;;5112707;28;20035;-79
2022/01/29 02:43:32;;;;;;;15.37;7.93;;;;;;;;;;5121639;28;20028;-79
2022/01/29 02:46:18;;;;;;;11.00;6.47;;;;;;;;;;5112966;28;20024;-80
2022/01/29 02:48:50;;;;;;;15.77;6.13;;;;;;;;;;5115126;28;20028;-80
2022/01/29 02:51:16;;;;;;;14.20;5.90;;;;;;;;;;5110002;28;20074;-77
2022/01/29 02:53:43;;;;;;;13.13;6.80;;;;;;;;;;5128826;27;20111;-78
2022/01/29 02:56:09;;;;;;;19.33;7.50;;;;;;;;;;5109992;28;20066;-79
2022/01/29 02:58:35;;;;;;;11.67;6.37;;;;;;;;;;5112151;27;20027;-80
2022/01/29 03:01:01;;;;;;;12.93;6.73;;;;;;;;;;5130648;27;20032;-80
2022/01/29 03:03:28;;;;;;;12.40;6.30;;;;;;;;;;5131528;27;20046;-78
2022/01/29 03:05:54;;;;;;;14.27;7.10;;;;;;;;;;5117712;28;20036;-79
2022/01/29 03:08:20;;;;;;;14.43;6.50;;;;;;;;;;5111811;28;20023;-79
2022/01/29 03:10:48;;;;;;;16.03;7.27;;;;;;;;;;5116218;28;20046;-79
2022/01/29 03:13:15;;;;;;;19.20;7.50;;;;;;;;;;5122286;28;20016;-78
2022/01/29 03:15:41;;;;;;;14.63;7.40;;;;;;;;;;5111490;28;20036;-78
2022/01/29 03:18:09;;;;;;;15.33;7.90;;;;;;;;;;5112678;28;20092;-79
2022/01/29 03:20:35;;;;;;;13.83;7.53;;;;;;;;;;5116576;28;20046;-79
2022/01/29 03:23:01;;;;;;;13.43;6.90;;;;;;;;;;5115484;28;20055;-79
2022/01/29 03:25:32;;;;;;;14.83;7.30;;;;;;;;;;5113429;28;20119;-78
2022/01/29 03:27:58;;;;;;;14.77;6.53;;;;;;;;;;5113047;28;20024;-79
2022/01/29 03:30:24;;;;;;;10.50;6.30;;;;;;;;;;5122987;28;20065;-78
2022/01/29 03:32:52;;;;;;;12.23;6.67;;;;;;;;;;5114041;27;20030;-77
2022/01/29 03:35:21;;;;;;;12.40;7.03;;;;;;;;;;5136595;27;20076;-79
2022/01/29 03:37:47;;;;;;;10.63;5.87;;;;;;;;;;5117933;27;20031;-80
2022/01/29 03:40:13;;;;;;;13.97;8.10;;;;;;;;;;5113616;27;20092;-79
2022/01/29 03:43:00;;;;;;;14.83;7.50;;;;;;;;;;5122781;27;20410;-79
2022/01/29 03:45:26;;;;;;;18.77;7.20;;;;;;;;;;5117638;27;20042;-79
2022/01/29 03:47:52;;;;;;;16.10;7.00;;;;;;;;;;5119927;27;20032;-79
2022/01/29 03:50:21;;;;;;;15.43;6.77;;;;;;;;;;5123868;27;20034;-79
2022/01/29 03:52:47;;;;;;;11.07;6.93;;;;;;;;;;5117223;27;20400;-79
2022/01/29 03:55:13;;;;;;;13.33;7.60;;;;;;;;;;5120229;27;20023;-77
2022/01/29 03:57:39;;;;;;;16.87;7.70;;;;;;;;;;5115276;27;20030;-79
2022/01/29 04:00:06;;;;;;;19.17;8.80;;;;;;;;;;5117970;27;20030;-80
2022/01/29 04:02:32;;;;;;;12.37;7.17;;;;;;;;;;5120277;27;20076;-78
2022/01/29 04:04:58;;;;;;;13.57;7.10;;;;;;;;;;5117301;27;20041;-77
2022/01/29 04:07:26;;;;;;;13.40;7.60;;;;;;;;;;5115337;27;20960;-79
2022/01/29 04:09:53;;;;;;;19.17;6.67;;;;;;;;;;5117091;27;20032;-77
2022/01/29 04:12:19;;;;;;;12.83;6.20;;;;;;;;;;5115301;27;20027;-79
2022/01/29 04:14:48;;;;;;;11.03;6.67;;;;;;;;;;5122156;27;20080;-79
2022/01/29 04:17:14;;;;;;;12.53;7.83;;;;;;;;;;5113840;27;20073;-78
2022/01/29 04:19:40;;;;;;;10.63;5.57;;;;;;;;;;5114527;27;20035;-79
2022/01/29 04:22:06;;;;;;;11.77;6.10;;;;;;;;;;5113054;27;20118;-79
2022/01/29 04:24:33;;;;;;;9.53;5.50;;;;;;;;;;5115697;27;20043;-79
2022/01/29 04:27:01;;;;;;;11.73;5.23;;;;;;;;;;5114974;27;20024;-78
2022/01/29 04:29:36;;;;;;;14.80;6.70;;;;;;;;;;5114315;27;20399;-79
2022/01/29 04:32:11;;;;;;;15.83;6.63;;;;;;;;;;5118502;27;20085;-79
2022/01/29 04:34:37;;;;;;;12.23;5.17;;;;;;;;;;5125283;27;20064;-79
2022/01/29 04:37:03;;;;;;;9.20;5.73;;;;;;;;;;5124512;27;20118;-78
2022/01/29 04:39:29;;;;;;;10.67;5.67;;;;;;;;;;5116181;27;20051;-79
2022/01/29 04:41:55;;;;;;;8.70;5.37;;;;;;;;;;5123837;27;20028;-80
2022/01/29 04:44:21;;;;;;;9.80;5.17;;;;;;;;;;5113734;27;20495;-77
2022/01/29 04:46:47;;;;;;;8.77;5.20;;;;;;;;;;5115861;27;20035;-79
2022/01/29 04:49:15;;;;;;;12.23;5.13;;;;;;;;;;5113962;27;20303;-79
2022/01/29 04:51:41;;;;;;;7.97;5.00;;;;;;;;;;5116075;27;20023;-79
2022/01/29 04:54:07;;;;;;;9.87;5.13;;;;;;;;;;5115184;27;20042;-79
2022/01/29 04:56:34;;;;;;;9.83;5.60;;;;;;;;;;5118200;27;20059;-79
2022/01/29 04:59:00;;;;;;;8.27;5.53;;;;;;;;;;5132167;27;20117;-79
2022/01/29 05:01:26;;;;;;;8.57;4.93;;;;;;;;;;5112054;27;20880;-79
2022/01/29 05:03:52;;;;;;;8.53;5.23;;;;;;;;;;5114895;27;20031;-79
2022/01/29 05:06:19;;;;;;;14.63;6.90;;;;;;;;;;5115980;27;20102;-79
2022/01/29 05:08:45;;;;;;;11.23;5.87;;;;;;;;;;5122856;27;20020;-78
2022/01/29 05:11:13;;;;;;;10.17;5.77;;;;;;;;;;5122076;27;20023;-79
2022/01/29 05:13:41;;;;;;;9.17;5.00;;;;;;;;;;5116539;27;20031;-79
2022/01/29 05:27:06;;;;;;;11.87;4.80;;;;;;;;;;5113492;27;20103;-78
2022/01/29 05:29:32;;;;;;;10.70;4.77;;;;;;;;;;5111707;27;20023;-78
2022/01/29 05:32:03;;;;;;;9.90;5.50;;;;;;;;;;5114917;27;20051;-78
2022/01/29 05:34:29;;;;;;;8.13;4.30;;;;;;;;;;5112468;27;20028;-78
2022/01/29 05:36:55;;;;;;;6.57;4.47;;;;;;;;;;5112339;27;20027;-79
2022/01/29 05:39:22;;;;;;;8.47;3.30;;;;;;;;;;5123351;27;20031;-78
2022/01/29 05:41:48;;;;;;;6.60;4.07;;;;;;;;;;5117052;27;20057;-78
2022/01/29 05:44:18;;;;;;;7.40;3.70;;;;;;;;;;5114576;27;20098;-77
2022/01/29 05:46:44;;;;;;;9.77;4.17;;;;;;;;;;5116284;27;20040;-78
2022/01/29 05:49:12;;;;;;;7.57;3.63;;;;;;;;;;5115240;27;20027;-78
2022/01/29 05:51:41;;;;;;;12.37;4.20;;;;;;;;;;5121597;27;20034;-77
2022/01/29 05:54:11;;;;;;;6.40;3.20;;;;;;;;;;5111195;27;20035;-78
2022/01/29 05:56:37;;;;;;;8.27;4.33;;;;;;;;;;5114098;27;20027;-78
2022/01/29 05:59:05;;;;;;;13.73;3.40;;;;;;;;;;5122343;27;20528;-78
2022/01/29 06:01:31;;;;;;;3.57;2.43;;;;;;;;;;5113230;27;20039;-78
2022/01/29 06:03:57;;;;;;;4.73;2.73;;;;;;;;;;5118763;27;20038;-80
2022/01/29 06:06:23;;;;;;;4.50;3.00;;;;;;;;;;5110243;27;20083;-78
2022/01/29 06:08:52;;;;;;;4.30;2.93;;;;;;;;;;5128225;27;20034;-79
2022/01/29 06:11:22;;;;;;;7.67;4.33;;;;;;;;;;5113060;27;20028;-77
2022/01/29 06:13:48;;;;;;;3.60;2.67;;;;;;;;;;5126640;27;20444;-77
2022/01/29 06:16:14;;;;;;;5.03;2.90;;;;;;;;;;5112587;27;20089;-78
2022/01/29 06:18:40;;;;;;;3.90;2.37;;;;;;;;;;5123482;27;20093;-77
2022/01/29 06:21:10;;;;;;;4.30;3.20;;;;;;;;;;5128332;27;20956;-77
2022/01/29 06:23:37;;;;;;;5.07;3.13;;;;;;;;;;5114328;27;20118;-78
2022/01/29 06:26:04;;;;;;;4.37;2.73;;;;;;;;;;5112692;27;20100;-77
2022/01/29 06:28:30;;;;;;;4.40;3.23;;;;;;;;;;5122737;28;20024;-77
2022/01/29 06:30:56;;;;;;;4.07;2.83;;;;;;;;;;5111423;28;20023;-79
2022/01/29 06:33:24;;;;;;;4.80;3.03;;;;;;;;;;5112743;27;20096;-78
2022/01/29 06:35:50;;;;;;;3.90;2.77;;;;;;;;;;5113126;28;20119;-77
2022/01/29 06:38:17;;;;;;;3.33;2.37;;;;;;;;;;5124234;28;20053;-79
2022/01/29 06:40:45;;;;;;;6.17;2.83;;;;;;;;;;5122472;28;20139;-80
2022/01/29 06:43:11;;;;;;;6.47;3.20;;;;;;;;;;5117432;28;20066;-78
2022/01/29 06:45:39;;;;;;;3.13;2.30;;;;;;;;;;5130888;27;20035;-80
2022/01/29 06:48:08;;;;;;;5.07;3.40;;;;;;;;;;5112482;28;20114;-78
2022/01/29 06:50:34;;;;;;;5.03;3.20;;;;;;;;;;5122318;28;20027;-80
2022/01/29 06:53:00;;;;;;;4.20;3.10;;;;;;;;;;5121048;28;20054;-79
2022/01/29 06:55:26;;;;;;;4.17;2.53;;;;;;;;;;5115262;28;20115;-80
2022/01/29 06:57:53;;;;;;;4.23;3.13;;;;;;;;;;5113322;27;20070;-77
2022/01/29 07:00:19;;;;;;;5.63;3.10;;;;;;;;;;5130365;27;20536;-77
2022/01/29 07:02:45;;;;;;;6.40;3.90;;;;;;;;;;5130522;27;20510;-78
2022/01/29 07:05:14;;;;;;;5.53;3.30;;;;;;;;;;5130698;27;20084;-78
2022/01/29 07:07:40;;;;;;;4.33;3.20;;;;;;;;;;5114081;27;20028;-79
2022/01/29 07:10:07;;;;;;;4.13;2.90;;;;;;;;;;5117197;27;20063;-79
2022/01/29 07:12:35;;;;;;;5.50;3.30;;;;;;;;;;5127125;27;20971;-78
2022/01/29 07:15:01;;;;;;;7.63;3.33;;;;;;;;;;5120901;27;20037;-79
2022/01/29 07:17:27;;;;;;;5.60;3.70;;;;;;;;;;5113784;27;20043;-78
2022/01/29 07:19:53;;;;;;;5.93;3.43;;;;;;;;;;5115195;27;20055;-80
2022/01/29 07:22:22;;;;;;;5.33;3.27;;;;;;;;;;5114820;27;20093;-77
2022/01/29 07:24:51;;;;;;;5.13;3.70;;;;;;;;;;5115628;27;20043;-79
2022/01/29 07:27:17;;;;;;;4.83;3.83;;;;;;;;;;5117655;27;20175;-78
2022/01/29 07:29:43;;;;;;;4.27;3.10;;;;;;;;;;5120033;27;20038;-80
2022/01/29 07:32:13;;;;;;;5.43;2.63;;;;;;;;;;5132304;27;20104;-78
2022/01/29 07:34:39;;;;;;;5.07;2.60;;;;;;;;;;5115304;27;20325;-81
2022/01/29 07:37:05;;;;;;;4.80;3.00;;;;;;;;;;5117806;27;20033;-78
2022/01/29 07:39:31;;;;;;;4.77;3.13;;;;;;;;;;5124222;27;20122;-78
2022/01/29 07:41:57;;;;;;;3.20;2.30;;;;;;;;;;5130082;27;20036;-77
2022/01/29 07:44:25;;;;;;;3.97;2.70;;;;;;;;;;5124663;27;20053;-78
2022/01/29 07:46:51;;;;;;;4.60;2.87;;;;;;;;;;5118963;27;20035;-80
2022/01/29 07:49:17;;;;;;;4.00;2.60;;;;;;;;;;5117718;27;20676;-77
2022/01/29 07:51:44;;;;;;;3.97;2.63;;;;;;;;;;5127328;27;20031;-76
2022/01/29 07:54:14;;;;;;;2.93;2.23;;;;;;;;;;5134961;27;20050;-78
2022/01/29 07:56:40;;;;;;;4.77;2.90;;;;;;;;;;5117578;27;20035;-78
2022/01/29 07:59:06;;;;;;;12.87;3.20;;;;;;;;;;5119055;27;20031;-79
2022/01/29 08:01:32;;;;;;;3.83;3.00;;;;;;;;;;5119749;27;20036;-79
2022/01/29 08:03:58;;;;;;;3.73;2.57;;;;;;;;;;5120762;27;20032;-80
2022/01/29 08:06:29;;;;;;;3.97;3.07;;;;;;;;;;5115170;27;20061;-76
2022/01/29 08:08:55;;;;;;;3.33;2.50;;;;;;;;;;5121567;27;20019;-77
2022/01/29 08:11:22;;;;;;;3.37;2.70;;;;;;;;;;5132276;27;20103;-78
2022/01/29 08:13:51;;;;;;;3.87;2.93;;;;;;;;;;5119284;27;20062;-76
2022/01/29 08:16:17;;;;;;;3.83;2.97;;;;;;;;;;5108785;27;20038;-80
2022/01/29 08:18:45;;;;;;;4.30;2.80;;;;;;;;;;5118147;27;20443;-77
2022/01/29 08:21:17;;;;;;;6.67;2.93;;;;;;;;;;5136266;27;20104;-78
2022/01/29 08:23:44;;;;;;;4.70;3.15;;;;;;;;;;5112163;27;20027;-79
2022/01/29 08:26:13;;;;;;;5.50;3.17;;;;;;;;;;5111845;27;20031;-75
2022/01/29 08:28:39;;;;;;;3.93;2.60;;;;;;;;;;5113679;27;20110;-79
2022/01/29 08:31:05;;;;;;;3.97;2.40;;;;;;;;;;5114329;27;20084;-77
2022/01/29 08:33:33;;;;;;;4.63;2.87;;;;;;;;;;5110164;27;20023;-78
2022/01/29 08:35:59;;;;;;;4.03;3.13;;;;;;;;;;5111446;27;20058;-80
2022/01/29 08:38:26;;;;;;;4.47;2.67;;;;;;;;;;5120916;27;20357;-78
2022/01/29 08:40:53;;;;;;;3.07;2.50;;;;;;;;;;5113868;27;20027;-79
2022/01/29 08:43:19;;;;;;;3.63;2.53;;;;;;;;;;5124269;27;20893;-78
2022/01/29 08:45:45;;;;;;;2.37;2.03;;;;;;;;;;5125263;27;20054;-78
2022/01/29 08:48:11;;;;;;;3.53;2.67;;;;;;;;;;5128944;27;20111;-78
2022/01/29 08:50:41;;;;;;;4.30;2.30;;;;;;;;;;5108623;27;20124;-77
2022/01/29 08:53:07;;;;;;;2.90;2.47;;;;;;;;;;5109434;27;20060;-78
2022/01/29 08:55:36;;;;;;;3.37;2.60;;;;;;;;;;5124773;27;20028;-77
2022/01/29 08:58:04;;;;;;;3.10;2.03;;;;;;;;;;5109329;27;20028;-76
2022/01/29 09:00:30;;;;;;;4.77;3.27;;;;;;;;;;5107725;27;20375;-78
2022/01/29 09:02:58;;;;;;;5.23;2.83;;;;;;;;;;5121967;27;20028;-77
2022/01/29 09:05:28;;;;;;;3.97;2.30;;;;;;;;;;5110206;27;20071;-77
2022/01/29 09:07:54;;;;;;;1.93;1.73;;;;;;;;;;5112730;27;20027;-78
2022/01/29 09:10:20;;;;;;;2.80;2.30;;;;;;;;;;5117850;27;20493;-78
2022/01/29 09:12:46;;;;;;;4.87;2.40;;;;;;;;;;5114116;27;20274;-78
2022/01/29 09:15:12;;;;;;;3.60;2.40;;;;;;;;;;5122705;27;20047;-80
2022/01/29 09:17:39;;;;;;;2.30;1.80;;;;;;;;;;5125428;27;20031;-81
2022/01/29 09:20:07;;;;;;;2.70;1.77;;;;;;;;;;5128700;27;20106;-79
2022/01/29 09:22:35;;;;;;;2.27;1.90;;;;;;;;;;5115175;27;20063;-81
2022/01/29 09:25:03;;;;;;;1.50;1.40;;;;;;;;;;5119206;27;20042;-80
2022/01/29 09:27:29;;;;;;;3.83;2.60;;;;;;;;;;5116236;27;20039;-80
2022/01/29 09:29:55;;;;;;;2.33;2.13;;;;;;;;;;5115877;27;20054;-80
2022/01/29 09:32:21;;;;;;;2.60;2.17;;;;;;;;;;5125873;27;20024;-79
2022/01/29 09:34:47;;;;;;;2.73;2.37;;;;;;;;;;5118607;27;21657;-81
2022/01/29 09:37:13;;;;;;;3.70;2.17;;;;;;;;;;5124382;27;20028;-80
2022/01/29 09:39:45;;;;;;;6.10;1.70;;;;;;;;;;5121354;27;20450;-79
2022/01/29 09:42:13;;;;;;;2.57;1.90;;;;;;;;;;5127169;27;20890;-80
2022/01/29 09:44:41;;;;;;;1.70;1.43;;;;;;;;;;5112711;27;20119;-78
2022/01/29 09:47:07;;;;;;;1.93;1.47;;;;;;;;;;5128545;27;20038;-76
2022/01/29 09:49:33;;;;;;;2.60;1.83;;;;;;;;;;5134368;27;20035;-80
2022/01/29 09:52:00;;;;;;;2.27;1.57;;;;;;;;;;5116767;27;20034;-79
2022/01/29 09:54:26;;;;;;;1.00;0.90;;;;;;;;;;5111938;27;21339;-78
2022/01/29 09:56:56;;;;;;;1.60;1.30;;;;;;;;;;5122988;27;20055;-78
2022/01/29 09:59:22;;;;;;;1.73;1.13;;;;;;;;;;5123677;27;20105;-79
2022/01/29 10:01:49;;;;;;;4.43;1.60;;;;;;;;;;5111160;27;20059;-78
2022/01/29 10:04:15;;;;;;;1.60;1.50;;;;;;;;;;5107013;27;20110;-78
2022/01/29 10:06:43;;;;;;;2.13;1.60;;;;;;;;;;5112324;27;20115;-77
2022/01/29 10:09:12;;;;;;;3.13;2.27;;;;;;;;;;5110260;27;20440;-77
2022/01/29 10:11:41;;;;;;;1.73;1.20;;;;;;;;;;5131562;27;20361;-78
2022/01/29 10:14:07;;;;;;;2.13;1.40;;;;;;;;;;5127042;27;20036;-79
2022/01/29 10:16:34;;;;;;;2.13;1.37;;;;;;;;;;5113137;27;20034;-77
2022/01/29 10:19:00;;;;;;;1.87;1.10;;;;;;;;;;5124498;27;20086;-79
2022/01/29 10:21:28;;;;;;;1.60;0.97;;;;;;;;;;5106154;28;20409;-78
2022/01/29 10:24:04;;;;;;;1.50;1.30;;;;;;;;;;5108886;27;20075;-78
2022/01/29 10:26:33;;;;;;;1.37;1.10;;;;;;;;;;5126231;27;20035;-78
2022/01/29 10:29:00;;;;;;;3.10;1.53;;;;;;;;;;5120535;28;20032;-78
2022/01/29 10:31:28;;;;;;;2.10;0.90;;;;;;;;;;5111509;28;20073;-78
2022/01/29 10:33:54;;;;;;;2.53;1.60;;;;;;;;;;5107169;28;20042;-78
2022/01/29 10:36:22;;;;;;;0.80;0.80;;;;;;;;;;5121140;28;20039;-78
2022/01/29 10:38:49;;;;;;;1.40;0.90;;;;;;;;;;5114596;27;20031;-78
2022/01/29 10:41:33;;;;;;;1.73;0.90;;;;;;;;;;5123953;27;20043;-78
2022/01/29 10:44:22;;;;;;;1.10;0.90;;;;;;;;;;5113173;27;20031;-78
2022/01/29 10:46:50;;;;;;;0.80;0.80;;;;;;;;;;5112905;27;20031;-78
2022/01/29 10:49:20;;;;;;;2.43;0.73;;;;;;;;;;5130469;27;20023;-76
2022/01/29 10:51:57;;;;;;;1.50;1.10;;;;;;;;;;5122978;27;20024;-79
2022/01/29 10:54:23;;;;;;;0.70;0.60;;;;;;;;;;5114777;27;20028;-80
2022/01/29 10:57:03;;;;;;;1.23;0.83;;;;;;;;;;5116402;27;20085;-76
2022/01/29 10:59:33;;;;;;;1.83;0.73;;;;;;;;;;5113287;27;20027;-79
2022/01/29 11:02:05;;;;;;;0.50;0.50;;;;;;;;;;5112958;27;20031;-79
2022/01/29 11:04:32;;;;;;;0.80;0.60;;;;;;;;;;5126202;27;20039;-77
2022/01/29 11:07:04;;;;;;;0.60;0.50;;;;;;;;;;5109550;27;20035;-79
2022/01/29 11:09:31;;;;;;;0.52;0.52;;;;;;;;;;5124979;27;20123;-78
2022/01/29 11:12:00;;;;;;;0.97;0.57;;;;;;;;;;5107807;27;20058;-79
2022/01/29 11:14:26;;;;;;;1.33;0.63;;;;;;;;;;5125202;27;20410;-77
2022/01/29 11:16:55;;;;;;;0.40;0.40;;;;;;;;;;5117230;27;20507;-77
2022/01/29 11:19:21;;;;;;;0.40;0.30;;;;;;;;;;5116647;27;20123;-77
2022/01/29 11:21:50;;;;;;;1.57;0.47;;;;;;;;;;5107452;27;20035;-74
2022/01/29 11:24:20;;;;;;;3.40;0.60;;;;;;;;;;5106936;27;20051;-77
2022/01/29 11:26:46;;;;;;;31.93;4.73;;;;;;;;;;5126256;27;20031;-75
2022/01/29 11:29:28;;;;;;;1.30;0.50;;;;;;;;;;5141420;27;20023;-75
2022/01/29 11:32:13;;;;;;;1.00;0.50;;;;;;;;;;5138921;27;20070;-77
2022/01/29 11:34:59;;;;;;;3.83;0.87;;;;;;;;;;5140562;27;20071;-75
2022/01/29 11:37:44;;;;;;;1.17;0.33;;;;;;;;;;5144618;27;20035;-77
2022/01/29 11:40:21;;;;;;;2.43;0.90;;;;;;;;;;5139813;27;20083;-75
2022/01/29 11:43:04;;;;;;;0.30;0.30;;;;;;;;;;5136456;27;20007;-75
2022/01/29 11:45:51;;;;;;;0.37;0.37;;;;;;;;;;5133304;27;20036;-76
2022/01/29 11:48:20;;;;;;;0.40;0.30;;;;;;;;;;5139329;27;20038;-75
2022/01/29 11:50:48;;;;;;;0.63;0.60;;;;;;;;;;5137399;27;21215;-77
2022/01/29 11:53:15;;;;;;;0.63;0.40;;;;;;;;;;5140563;27;20318;-77
2022/01/29 11:55:41;;;;;;;0.60;0.50;;;;;;;;;;5141594;27;20058;-77
2022/01/29 11:58:15;;;;;;;0.60;0.33;;;;;;;;;;5140006;27;20031;-75
2022/01/29 12:00:42;;;;;;;0.40;0.40;;;;;;;;;;5155836;27;20023;-79
2022/01/29 12:03:28;;;;;;;0.50;0.40;;;;;;;;;;5135922;27;20071;-76
2022/01/29 12:09:07;;;;;;;0.50;0.33;;;;;;;;;;5137623;27;20027;-76
2022/01/29 12:11:38;;;;;;;0.57;0.40;;;;;;;;;;5139380;27;20031;-75
2022/01/29 12:14:18;;;;;;;0.57;0.50;;;;;;;;;;5149930;27;20028;-79
2022/01/29 12:16:48;;;;;;;1.03;0.40;;;;;;;;;;5135988;27;20007;-76
2022/01/29 12:19:33;;;;;;;0.73;0.60;;;;;;;;;;5144319;27;20043;-75
2022/01/29 12:21:59;;;;;;;0.60;0.40;;;;;;;;;;5137908;27;20020;-75
2022/01/29 12:24:25;;;;;;;0.30;0.30;;;;;;;;;;5141483;27;20020;-74
2022/01/29 12:26:56;;;;;;;0.30;0.30;;;;;;;;;;5144849;27;20054;-76
2022/01/29 12:29:22;;;;;;;1.13;0.40;;;;;;;;;;5140956;27;20106;-75
2022/01/29 12:31:57;;;;;;;0.60;0.50;;;;;;;;;;5136443;27;20011;-75
2022/01/29 12:34:24;;;;;;;2.57;0.40;;;;;;;;;;5136660;27;20087;-74
2022/01/29 12:36:50;;;;;;;0.83;0.37;;;;;;;;;;5145169;27;20007;-74
2022/01/29 12:39:23;;;;;;;0.30;0.30;;;;;;;;;;5136994;27;20035;-75
2022/01/29 12:42:13;;;;;;;0.50;0.40;;;;;;;;;;5139852;27;20058;-76
2022/01/29 12:44:40;;;;;;;2.10;0.53;;;;;;;;;;5142108;27;20024;-77
2022/01/29 12:47:09;;;;;;;0.40;0.40;;;;;;;;;;5133339;27;20019;-77
2022/01/29 12:49:42;;;;;;;0.27;0.27;;;;;;;;;;5143147;27;20019;-74
2022/01/29 12:52:14;;;;;;;0.40;0.30;;;;;;;;;;5141302;27;20043;-74
2022/01/29 12:54:40;;;;;;;0.30;0.30;;;;;;;;;;5143990;27;20433;-79
2022/01/29 12:57:07;;;;;;;0.50;0.50;;;;;;;;;;5152363;27;20019;-74
2022/01/29 12:59:36;;;;;;;1.10;0.30;;;;;;;;;;5146770;27;20035;-76
2022/01/29 13:02:05;;;;;;;0.70;0.40;;;;;;;;;;5136691;27;20011;-76
2022/01/29 13:04:31;;;;;;;0.20;0.20;;;;;;;;;;5134622;27;20077;-76
2022/01/29 13:07:05;;;;;;;0.60;0.50;;;;;;;;;;5134540;27;20019;-76
2022/01/29 13:09:37;;;;;;;3.03;0.67;;;;;;;;;;5142794;27;20028;-75
2022/01/29 13:12:03;;;;;;;;;;;;;;;;;;5140692;27;20019;-75
2022/01/29 13:14:31;;;;;;;0.30;0.30;;;;;;;;;;5144610;27;19967;-77
2022/01/29 13:16:58;;;;;;;1.70;0.30;;;;;;;;;;5142661;27;20031;-76
2022/01/29 13:19:25;;;;;;;0.90;0.70;;;;;;;;;;5151826;27;20303;-76
2022/01/29 13:21:51;;;;;;;1.37;0.30;;;;;;;;;;5143008;27;20035;-75
2022/01/29 13:24:27;;;;;;;6.13;0.50;;;;;;;;;;5133881;27;20034;-74
2022/01/29 13:27:08;;;;;;;6.23;0.80;;;;;;;;;;5135571;27;20039;-75
2022/01/29 13:29:36;;;;;;;2.87;0.53;;;;;;;;;;5133927;27;20024;-74
2022/01/29 13:32:03;;;;;;;0.47;0.47;;;;;;;;;;5141020;27;20020;-76
2022/01/29 13:34:32;;;;;;;1.20;0.40;;;;;;;;;;5133636;27;20023;-75
2022/01/29 13:36:58;;;;;;;2.70;0.30;;;;;;;;;;5143023;27;20087;-76
2022/01/29 13:39:28;;;;;;;0.30;0.30;;;;;;;;;;5135261;27;20035;-76
2022/01/29 13:42:17;;;;;;;0.97;0.47;;;;;;;;;;5133467;27;20015;-75
2022/01/29 13:45:02;;;;;;;0.43;0.40;;;;;;;;;;5152446;27;20046;-75
2022/01/29 13:47:28;;;;;;;1.93;0.70;;;;;;;;;;5150829;27;20031;-76
2022/01/29 13:49:54;;;;;;;0.63;0.40;;;;;;;;;;5133438;27;21098;-81
2022/01/29 13:52:23;;;;;;;0.50;0.40;;;;;;;;;;5149142;27;20016;-79
2022/01/29 13:54:50;;;;;;;0.40;0.40;;;;;;;;;;5136146;27;20051;-74
2022/01/29 13:57:16;;;;;;;1.57;0.80;;;;;;;;;;5151451;27;20087;-76
2022/01/29 13:59:42;;;;;;;0.87;0.40;;;;;;;;;;5143467;27;20035;-75
2022/01/29 14:02:09;;;;;;;11.53;1.60;;;;;;;;;;5131635;28;20019;-77
2022/01/29 14:04:40;;;;;;;0.50;0.50;;;;;;;;;;5132378;27;20040;-75
2022/01/29 14:07:16;;;;;;;0.83;0.57;;;;;;;;;;5133282;27;20031;-76
2022/01/29 14:09:52;;;;;;;3.50;1.00;;;;;;;;;;5140442;27;20012;-78
2022/01/29 14:12:18;;;;;;;1.00;0.80;;;;;;;;;;5134089;27;20012;-74
2022/01/29 14:14:48;;;;;;;3.50;0.70;;;;;;;;;;5132040;27;20023;-76
2022/01/29 14:17:17;;;;;;;2.77;0.70;;;;;;;;;;5133414;27;20020;-76
2022/01/29 14:19:44;;;;;;;2.77;0.70;;;;;;;;;;5141725;27;20032;-78
2022/01/29 14:22:10;;;;;;;1.30;0.40;;;;;;;;;;5137643;27;20023;-74
2022/01/29 14:24:37;;;;;;;1.00;0.57;;;;;;;;;;5151714;27;20042;-75
2022/01/29 14:27:05;;;;;;;0.90;0.50;;;;;;;;;;5139274;27;20028;-75
2022/01/29 14:29:31;;;;;;;3.20;0.80;;;;;;;;;;5133588;27;20024;-76
2022/01/29 14:32:00;;;;;;;0.80;0.60;;;;;;;;;;5143431;28;20035;-77
2022/01/29 14:34:26;;;;;;;0.90;0.40;;;;;;;;;;5137301;28;20212;-77
2022/01/29 14:36:55;;;;;;;0.50;0.40;;;;;;;;;;5139998;28;20040;-75
2022/01/29 14:39:23;;;;;;;2.50;0.90;;;;;;;;;;5136215;28;20019;-75
2022/01/29 14:41:49;;;;;;;5.73;0.97;;;;;;;;;;5134699;28;20028;-77
2022/01/29 14:44:15;;;;;;;2.13;0.93;;;;;;;;;;5133305;28;20035;-75
2022/01/29 14:46:41;;;;;;;11.77;2.50;;;;;;;;;;5132636;28;20069;-75
2022/01/29 14:49:10;;;;;;;2.17;0.70;;;;;;;;;;5134294;28;20020;-75
2022/01/29 14:51:38;;;;;;;2.60;0.90;;;;;;;;;;5142970;28;20023;-76
2022/01/29 14:54:09;;;;;;;0.67;0.67;;;;;;;;;;5144367;28;20067;-78
2022/01/29 14:56:39;;;;;;;0.87;0.70;;;;;;;;;;5134477;28;20134;-74
2022/01/29 14:59:07;;;;;;;2.60;1.23;;;;;;;;;;5136180;28;20035;-75
2022/01/29 15:01:36;;;;;;;5.20;0.80;;;;;;;;;;5132926;28;20008;-76